sensor_id;sensor_type;location;lat;lon;timestamp;temperature;humidity
75451;DHT22;64029;48.244;9.188;2023-02-02T00:01:12;2.50;82.30
75451;DHT22;64029;48.244;9.188;2023-02-02T00:03:39;2.50;82.60
75451;DHT22;64029;48.244;9.188;2023-02-02T00:06:06;2.50;82.40
75451;DHT22;64029;48.244;9.188;2023-02-02T00:08:33;2.50;82.50
75451;DHT22;64029;48.244;9.188;2023-02-02T00:11:02;2.50;82.60
75451;DHT22;64029;48.244;9.188;2023-02-02T00:13:29;2.50;82.60
75451;DHT22;64029;48.244;9.188;2023-02-02T00:15:56;2.50;82.70
75451;DHT22;64029;48.244;9.188;2023-02-02T00:18:22;2.50;82.80
75451;DHT22;64029;48.244;9.188;2023-02-02T00:20:49;2.40;82.60
75451;DHT22;64029;48.244;9.188;2023-02-02T00:23:18;2.50;82.80
75451;DHT22;64029;48.244;9.188;2023-02-02T00:25:48;2.40;82.60
75451;DHT22;64029;48.244;9.188;2023-02-02T00:28:16;2.40;82.80
75451;DHT22;64029;48.244;9.188;2023-02-02T00:30:43;2.40;82.80
75451;DHT22;64029;48.244;9.188;2023-02-02T00:33:10;2.40;82.90
75451;DHT22;64029;48.244;9.188;2023-02-02T00:35:40;2.40;82.90
75451;DHT22;64029;48.244;9.188;2023-02-02T00:38:07;2.50;83.00
75451;DHT22;64029;48.244;9.188;2023-02-02T00:40:34;2.40;82.90
75451;DHT22;64029;48.244;9.188;2023-02-02T00:43:01;2.40;82.90
75451;DHT22;64029;48.244;9.188;2023-02-02T00:45:30;2.40;82.80
75451;DHT22;64029;48.244;9.188;2023-02-02T00:47:55;2.40;82.90
75451;DHT22;64029;48.244;9.188;2023-02-02T00:50:22;2.40;82.90
75451;DHT22;64029;48.244;9.188;2023-02-02T00:52:50;2.40;82.90
75451;DHT22;64029;48.244;9.188;2023-02-02T00:55:17;2.40;82.80
75451;DHT22;64029;48.244;9.188;2023-02-02T00:57:44;2.40;82.80
75451;DHT22;64029;48.244;9.188;2023-02-02T01:00:13;2.40;82.80
75451;DHT22;64029;48.244;9.188;2023-02-02T01:02:42;2.40;82.80
75451;DHT22;64029;48.244;9.188;2023-02-02T01:05:10;2.50;82.90
75451;DHT22;64029;48.244;9.188;2023-02-02T01:07:37;2.50;82.90
75451;DHT22;64029;48.244;9.188;2023-02-02T01:10:05;2.40;82.80
75451;DHT22;64029;48.244;9.188;2023-02-02T01:12:33;2.40;82.80
75451;DHT22;64029;48.244;9.188;2023-02-02T01:15:00;2.50;82.90
75451;DHT22;64029;48.244;9.188;2023-02-02T01:17:27;2.40;82.80
75451;DHT22;64029;48.244;9.188;2023-02-02T01:19:55;2.40;82.90
75451;DHT22;64029;48.244;9.188;2023-02-02T01:22:22;2.50;83.00
75451;DHT22;64029;48.244;9.188;2023-02-02T01:24:49;2.50;83.10
75451;DHT22;64029;48.244;9.188;2023-02-02T01:27:16;2.40;83.10
75451;DHT22;64029;48.244;9.188;2023-02-02T01:29:43;2.50;83.20
75451;DHT22;64029;48.244;9.188;2023-02-02T01:32:10;2.50;83.20
75451;DHT22;64029;48.244;9.188;2023-02-02T01:34:37;2.50;83.30
75451;DHT22;64029;48.244;9.188;2023-02-02T01:37:07;2.50;83.30
75451;DHT22;64029;48.244;9.188;2023-02-02T01:39:35;2.40;83.20
75451;DHT22;64029;48.244;9.188;2023-02-02T01:42:03;2.50;83.40
75451;DHT22;64029;48.244;9.188;2023-02-02T01:45:16;2.50;83.40
75451;DHT22;64029;48.244;9.188;2023-02-02T01:47:45;2.50;83.60
75451;DHT22;64029;48.244;9.188;2023-02-02T01:50:14;2.50;83.50
75451;DHT22;64029;48.244;9.188;2023-02-02T01:52:45;2.50;83.50
75451;DHT22;64029;48.244;9.188;2023-02-02T01:55:15;2.50;83.50
75451;DHT22;64029;48.244;9.188;2023-02-02T01:57:47;2.50;83.60
75451;DHT22;64029;48.244;9.188;2023-02-02T02:00:16;2.50;83.50
75451;DHT22;64029;48.244;9.188;2023-02-02T02:02:49;2.50;83.40
75451;DHT22;64029;48.244;9.188;2023-02-02T02:05:22;2.50;83.50
75451;DHT22;64029;48.244;9.188;2023-02-02T02:07:53;2.50;83.60
75451;DHT22;64029;48.244;9.188;2023-02-02T02:10:22;2.50;83.50
75451;DHT22;64029;48.244;9.188;2023-02-02T02:12:49;2.50;83.60
75451;DHT22;64029;48.244;9.188;2023-02-02T02:15:19;2.50;84.30
75451;DHT22;64029;48.244;9.188;2023-02-02T02:18:12;2.50;83.60
75451;DHT22;64029;48.244;9.188;2023-02-02T02:24:27;2.50;83.70
75451;DHT22;64029;48.244;9.188;2023-02-02T02:27:35;2.50;83.60
75451;DHT22;64029;48.244;9.188;2023-02-02T02:30:47;2.50;83.50
75451;DHT22;64029;48.244;9.188;2023-02-02T02:33:20;2.50;83.60
75451;DHT22;64029;48.244;9.188;2023-02-02T02:35:58;2.50;83.60
75451;DHT22;64029;48.244;9.188;2023-02-02T02:38:35;2.50;83.60
75451;DHT22;64029;48.244;9.188;2023-02-02T02:41:06;2.50;83.70
75451;DHT22;64029;48.244;9.188;2023-02-02T02:43:39;2.50;83.70
75451;DHT22;64029;48.244;9.188;2023-02-02T02:46:08;2.50;83.60
75451;DHT22;64029;48.244;9.188;2023-02-02T02:48:37;2.50;83.60
75451;DHT22;64029;48.244;9.188;2023-02-02T02:51:08;2.50;83.60
75451;DHT22;64029;48.244;9.188;2023-02-02T02:53:55;2.50;83.80
75451;DHT22;64029;48.244;9.188;2023-02-02T02:56:26;2.50;83.70
75451;DHT22;64029;48.244;9.188;2023-02-02T02:59:00;2.50;83.60
75451;DHT22;64029;48.244;9.188;2023-02-02T03:01:35;2.50;83.60
75451;DHT22;64029;48.244;9.188;2023-02-02T03:04:11;2.50;83.60
75451;DHT22;64029;48.244;9.188;2023-02-02T03:06:46;2.50;83.70
75451;DHT22;64029;48.244;9.188;2023-02-02T03:09:17;2.50;83.60
75451;DHT22;64029;48.244;9.188;2023-02-02T03:11:45;2.50;83.70
75451;DHT22;64029;48.244;9.188;2023-02-02T03:14:12;2.50;83.80
75451;DHT22;64029;48.244;9.188;2023-02-02T03:16:39;2.50;83.70
75451;DHT22;64029;48.244;9.188;2023-02-02T03:19:07;2.50;83.70
75451;DHT22;64029;48.244;9.188;2023-02-02T03:21:34;2.50;83.60
75451;DHT22;64029;48.244;9.188;2023-02-02T03:24:01;2.50;83.70
75451;DHT22;64029;48.244;9.188;2023-02-02T03:26:28;2.60;83.80
75451;DHT22;64029;48.244;9.188;2023-02-02T03:28:55;2.50;83.60
75451;DHT22;64029;48.244;9.188;2023-02-02T03:31:23;2.50;83.60
75451;DHT22;64029;48.244;9.188;2023-02-02T03:33:51;2.50;83.60
75451;DHT22;64029;48.244;9.188;2023-02-02T03:36:20;2.50;83.60
75451;DHT22;64029;48.244;9.188;2023-02-02T03:38:46;2.50;83.70
75451;DHT22;64029;48.244;9.188;2023-02-02T03:41:13;2.50;84.40
75451;DHT22;64029;48.244;9.188;2023-02-02T03:43:40;2.50;83.70
75451;DHT22;64029;48.244;9.188;2023-02-02T03:46:07;2.50;83.80
75451;DHT22;64029;48.244;9.188;2023-02-02T03:48:35;2.50;83.80
75451;DHT22;64029;48.244;9.188;2023-02-02T03:51:06;2.50;83.70
75451;DHT22;64029;48.244;9.188;2023-02-02T03:53:35;2.50;83.80
75451;DHT22;64029;48.244;9.188;2023-02-02T03:56:02;2.40;83.60
75451;DHT22;64029;48.244;9.188;2023-02-02T03:58:29;2.40;83.70
75451;DHT22;64029;48.244;9.188;2023-02-02T04:00:58;2.40;83.70
75451;DHT22;64029;48.244;9.188;2023-02-02T04:03:27;2.40;83.70
75451;DHT22;64029;48.244;9.188;2023-02-02T04:05:54;2.50;83.80
75451;DHT22;64029;48.244;9.188;2023-02-02T04:08:21;2.50;84.60
75451;DHT22;64029;48.244;9.188;2023-02-02T04:10:49;2.40;83.70
75451;DHT22;64029;48.244;9.188;2023-02-02T04:13:16;2.40;83.70
75451;DHT22;64029;48.244;9.188;2023-02-02T04:15:43;2.40;83.90
75451;DHT22;64029;48.244;9.188;2023-02-02T04:18:09;2.40;83.70
75451;DHT22;64029;48.244;9.188;2023-02-02T04:20:36;2.40;83.80
75451;DHT22;64029;48.244;9.188;2023-02-02T04:23:03;2.40;83.80
75451;DHT22;64029;48.244;9.188;2023-02-02T04:25:30;2.40;83.90
75451;DHT22;64029;48.244;9.188;2023-02-02T04:27:58;2.40;84.00
75451;DHT22;64029;48.244;9.188;2023-02-02T04:30:25;2.40;84.00
75451;DHT22;64029;48.244;9.188;2023-02-02T04:32:53;2.40;84.20
75451;DHT22;64029;48.244;9.188;2023-02-02T04:35:20;2.40;84.10
75451;DHT22;64029;48.244;9.188;2023-02-02T04:37:46;2.40;84.20
75451;DHT22;64029;48.244;9.188;2023-02-02T04:40:13;2.40;84.10
75451;DHT22;64029;48.244;9.188;2023-02-02T04:42:40;2.40;84.30
75451;DHT22;64029;48.244;9.188;2023-02-02T04:45:09;2.40;84.30
75451;DHT22;64029;48.244;9.188;2023-02-02T04:47:36;2.40;84.30
75451;DHT22;64029;48.244;9.188;2023-02-02T04:50:04;2.40;84.20
75451;DHT22;64029;48.244;9.188;2023-02-02T04:52:31;2.50;84.60
75451;DHT22;64029;48.244;9.188;2023-02-02T04:54:58;2.40;84.20
75451;DHT22;64029;48.244;9.188;2023-02-02T04:57:25;2.50;84.60
75451;DHT22;64029;48.244;9.188;2023-02-02T04:59:52;2.40;84.30
75451;DHT22;64029;48.244;9.188;2023-02-02T05:02:20;2.40;84.30
75451;DHT22;64029;48.244;9.188;2023-02-02T05:04:47;2.40;84.50
75451;DHT22;64029;48.244;9.188;2023-02-02T05:07:14;2.40;84.30
75451;DHT22;64029;48.244;9.188;2023-02-02T05:09:41;2.40;84.30
75451;DHT22;64029;48.244;9.188;2023-02-02T05:12:08;2.40;84.40
75451;DHT22;64029;48.244;9.188;2023-02-02T05:14:34;2.40;84.70
75451;DHT22;64029;48.244;9.188;2023-02-02T05:17:01;2.50;84.40
75451;DHT22;64029;48.244;9.188;2023-02-02T05:19:29;2.40;84.40
75451;DHT22;64029;48.244;9.188;2023-02-02T05:21:56;2.50;84.90
75451;DHT22;64029;48.244;9.188;2023-02-02T05:24:23;2.40;84.50
75451;DHT22;64029;48.244;9.188;2023-02-02T05:26:52;2.40;84.50
75451;DHT22;64029;48.244;9.188;2023-02-02T05:29:22;2.40;84.60
75451;DHT22;64029;48.244;9.188;2023-02-02T05:31:50;2.40;84.50
75451;DHT22;64029;48.244;9.188;2023-02-02T05:34:16;2.40;84.50
75451;DHT22;64029;48.244;9.188;2023-02-02T05:36:45;2.40;84.60
75451;DHT22;64029;48.244;9.188;2023-02-02T05:39:12;2.40;84.50
75451;DHT22;64029;48.244;9.188;2023-02-02T05:41:39;2.40;84.30
75451;DHT22;64029;48.244;9.188;2023-02-02T05:44:06;2.40;84.40
75451;DHT22;64029;48.244;9.188;2023-02-02T05:46:34;2.40;84.60
75451;DHT22;64029;48.244;9.188;2023-02-02T05:49:01;2.40;84.50
75451;DHT22;64029;48.244;9.188;2023-02-02T05:51:31;2.40;84.70
75451;DHT22;64029;48.244;9.188;2023-02-02T05:54:01;2.40;84.60
75451;DHT22;64029;48.244;9.188;2023-02-02T05:56:28;2.30;84.40
75451;DHT22;64029;48.244;9.188;2023-02-02T05:58:54;2.30;84.40
75451;DHT22;64029;48.244;9.188;2023-02-02T06:01:21;2.30;84.30
75451;DHT22;64029;48.244;9.188;2023-02-02T06:03:48;2.30;84.30
75451;DHT22;64029;48.244;9.188;2023-02-02T06:06:15;2.30;84.40
75451;DHT22;64029;48.244;9.188;2023-02-02T06:08:41;2.30;84.60
75451;DHT22;64029;48.244;9.188;2023-02-02T06:11:11;2.30;84.60
75451;DHT22;64029;48.244;9.188;2023-02-02T06:13:38;2.40;84.50
75451;DHT22;64029;48.244;9.188;2023-02-02T06:16:06;2.30;84.40
75451;DHT22;64029;48.244;9.188;2023-02-02T06:18:33;2.30;84.70
75451;DHT22;64029;48.244;9.188;2023-02-02T06:21:01;2.30;84.60
75451;DHT22;64029;48.244;9.188;2023-02-02T06:23:28;2.30;84.70
75451;DHT22;64029;48.244;9.188;2023-02-02T06:25:55;2.30;84.80
75451;DHT22;64029;48.244;9.188;2023-02-02T06:28:23;2.40;85.10
75451;DHT22;64029;48.244;9.188;2023-02-02T06:30:50;2.40;84.90
75451;DHT22;64029;48.244;9.188;2023-02-02T06:33:17;2.30;84.70
75451;DHT22;64029;48.244;9.188;2023-02-02T06:35:44;2.30;84.60
75451;DHT22;64029;48.244;9.188;2023-02-02T06:38:11;2.30;84.50
75451;DHT22;64029;48.244;9.188;2023-02-02T06:40:37;2.30;84.60
75451;DHT22;64029;48.244;9.188;2023-02-02T06:43:04;2.30;84.60
75451;DHT22;64029;48.244;9.188;2023-02-02T06:45:32;2.30;84.60
75451;DHT22;64029;48.244;9.188;2023-02-02T06:48:04;2.30;85.00
75451;DHT22;64029;48.244;9.188;2023-02-02T06:50:35;2.30;84.70
75451;DHT22;64029;48.244;9.188;2023-02-02T06:53:02;2.30;84.90
75451;DHT22;64029;48.244;9.188;2023-02-02T06:55:29;2.30;85.40
75451;DHT22;64029;48.244;9.188;2023-02-02T06:57:57;2.30;84.80
75451;DHT22;64029;48.244;9.188;2023-02-02T07:00:24;2.30;85.10
75451;DHT22;64029;48.244;9.188;2023-02-02T07:02:52;2.30;84.90
75451;DHT22;64029;48.244;9.188;2023-02-02T07:05:19;2.30;85.00
75451;DHT22;64029;48.244;9.188;2023-02-02T07:07:48;2.40;85.40
75451;DHT22;64029;48.244;9.188;2023-02-02T07:10:16;2.50;85.50
75451;DHT22;64029;48.244;9.188;2023-02-02T07:12:43;2.50;85.10
75451;DHT22;64029;48.244;9.188;2023-02-02T07:15:10;2.50;84.90
75451;DHT22;64029;48.244;9.188;2023-02-02T07:17:37;2.50;85.00
75451;DHT22;64029;48.244;9.188;2023-02-02T07:20:06;2.50;85.00
75451;DHT22;64029;48.244;9.188;2023-02-02T07:22:37;2.50;85.20
75451;DHT22;64029;48.244;9.188;2023-02-02T07:25:05;2.50;85.10
75451;DHT22;64029;48.244;9.188;2023-02-02T07:27:32;2.50;85.20
75451;DHT22;64029;48.244;9.188;2023-02-02T07:29:59;2.50;85.30
75451;DHT22;64029;48.244;9.188;2023-02-02T07:32:25;2.50;85.60
75451;DHT22;64029;48.244;9.188;2023-02-02T07:34:52;2.50;85.20
75451;DHT22;64029;48.244;9.188;2023-02-02T07:37:20;2.50;85.40
75451;DHT22;64029;48.244;9.188;2023-02-02T07:39:47;2.40;85.10
75451;DHT22;64029;48.244;9.188;2023-02-02T07:42:14;2.50;85.20
75451;DHT22;64029;48.244;9.188;2023-02-02T07:44:41;2.40;85.00
75451;DHT22;64029;48.244;9.188;2023-02-02T07:47:08;2.50;85.10
75451;DHT22;64029;48.244;9.188;2023-02-02T07:49:34;2.50;85.00
75451;DHT22;64029;48.244;9.188;2023-02-02T07:52:01;2.50;85.00
75451;DHT22;64029;48.244;9.188;2023-02-02T07:54:29;2.50;86.00
75451;DHT22;64029;48.244;9.188;2023-02-02T07:56:57;2.50;85.20
75451;DHT22;64029;48.244;9.188;2023-02-02T07:59:25;2.50;85.40
75451;DHT22;64029;48.244;9.188;2023-02-02T08:01:52;2.50;85.30
75451;DHT22;64029;48.244;9.188;2023-02-02T08:04:19;2.50;85.30
75451;DHT22;64029;48.244;9.188;2023-02-02T08:06:45;2.50;85.80
75451;DHT22;64029;48.244;9.188;2023-02-02T08:09:12;2.50;85.30
75451;DHT22;64029;48.244;9.188;2023-02-02T08:11:41;2.50;85.30
75451;DHT22;64029;48.244;9.188;2023-02-02T08:14:11;2.60;85.40
75451;DHT22;64029;48.244;9.188;2023-02-02T08:16:38;2.60;85.50
75451;DHT22;64029;48.244;9.188;2023-02-02T08:19:05;2.60;85.60
75451;DHT22;64029;48.244;9.188;2023-02-02T08:21:32;2.60;85.60
75451;DHT22;64029;48.244;9.188;2023-02-02T08:23:59;2.60;85.40
75451;DHT22;64029;48.244;9.188;2023-02-02T08:26:28;2.60;85.60
75451;DHT22;64029;48.244;9.188;2023-02-02T08:28:59;2.60;85.50
75451;DHT22;64029;48.244;9.188;2023-02-02T08:31:29;2.60;85.60
75451;DHT22;64029;48.244;9.188;2023-02-02T08:33:56;2.70;85.80
75451;DHT22;64029;48.244;9.188;2023-02-02T08:36:24;2.70;85.60
75451;DHT22;64029;48.244;9.188;2023-02-02T08:38:51;2.70;85.90
75451;DHT22;64029;48.244;9.188;2023-02-02T08:41:21;2.80;85.90
75451;DHT22;64029;48.244;9.188;2023-02-02T08:43:48;2.80;86.10
75451;DHT22;64029;48.244;9.188;2023-02-02T08:46:17;2.70;85.90
75451;DHT22;64029;48.244;9.188;2023-02-02T08:48:45;2.80;86.20
75451;DHT22;64029;48.244;9.188;2023-02-02T08:51:13;2.80;86.10
75451;DHT22;64029;48.244;9.188;2023-02-02T08:53:40;2.80;86.10
75451;DHT22;64029;48.244;9.188;2023-02-02T08:56:10;2.90;86.10
75451;DHT22;64029;48.244;9.188;2023-02-02T08:58:38;2.90;86.10
75451;DHT22;64029;48.244;9.188;2023-02-02T09:01:06;2.90;86.10
75451;DHT22;64029;48.244;9.188;2023-02-02T09:03:34;2.90;86.10
75451;DHT22;64029;48.244;9.188;2023-02-02T09:06:05;3.00;86.20
75451;DHT22;64029;48.244;9.188;2023-02-02T09:08:33;3.00;86.20
75451;DHT22;64029;48.244;9.188;2023-02-02T09:11:04;3.00;86.20
75451;DHT22;64029;48.244;9.188;2023-02-02T09:13:31;3.00;86.00
75451;DHT22;64029;48.244;9.188;2023-02-02T09:15:59;3.00;86.00
75451;DHT22;64029;48.244;9.188;2023-02-02T09:18:27;3.10;86.10
75451;DHT22;64029;48.244;9.188;2023-02-02T09:20:58;3.10;86.00
75451;DHT22;64029;48.244;9.188;2023-02-02T09:23:27;3.10;85.90
75451;DHT22;64029;48.244;9.188;2023-02-02T09:25:54;3.10;86.00
75451;DHT22;64029;48.244;9.188;2023-02-02T09:28:21;3.10;85.90
75451;DHT22;64029;48.244;9.188;2023-02-02T09:30:48;3.20;85.90
75451;DHT22;64029;48.244;9.188;2023-02-02T09:33:15;3.20;85.80
75451;DHT22;64029;48.244;9.188;2023-02-02T09:35:42;3.20;85.80
75451;DHT22;64029;48.244;9.188;2023-02-02T09:38:10;3.20;85.80
75451;DHT22;64029;48.244;9.188;2023-02-02T09:40:39;3.30;85.90
75451;DHT22;64029;48.244;9.188;2023-02-02T09:43:18;3.30;86.10
75451;DHT22;64029;48.244;9.188;2023-02-02T09:45:58;3.30;85.80
75451;DHT22;64029;48.244;9.188;2023-02-02T09:48:32;3.30;85.90
75451;DHT22;64029;48.244;9.188;2023-02-02T09:51:04;3.30;85.90
75451;DHT22;64029;48.244;9.188;2023-02-02T09:53:39;3.30;85.80
75451;DHT22;64029;48.244;9.188;2023-02-02T09:56:12;3.30;85.80
75451;DHT22;64029;48.244;9.188;2023-02-02T09:58:44;3.40;85.80
75451;DHT22;64029;48.244;9.188;2023-02-02T10:01:16;3.30;85.70
75451;DHT22;64029;48.244;9.188;2023-02-02T10:03:54;3.30;85.90
75451;DHT22;64029;48.244;9.188;2023-02-02T10:06:29;3.40;86.60
75451;DHT22;64029;48.244;9.188;2023-02-02T10:09:05;3.40;86.00
75451;DHT22;64029;48.244;9.188;2023-02-02T10:11:38;3.40;85.90
75451;DHT22;64029;48.244;9.188;2023-02-02T10:14:13;3.40;86.00
75451;DHT22;64029;48.244;9.188;2023-02-02T10:16:40;3.40;86.00
75451;DHT22;64029;48.244;9.188;2023-02-02T10:19:10;3.40;86.00
75451;DHT22;64029;48.244;9.188;2023-02-02T10:21:42;3.40;86.00
75451;DHT22;64029;48.244;9.188;2023-02-02T10:24:17;3.40;86.10
75451;DHT22;64029;48.244;9.188;2023-02-02T10:26:46;3.40;86.10
75451;DHT22;64029;48.244;9.188;2023-02-02T10:29:17;3.40;86.20
75451;DHT22;64029;48.244;9.188;2023-02-02T10:31:52;3.50;86.40
75451;DHT22;64029;48.244;9.188;2023-02-02T10:34:26;3.50;86.40
75451;DHT22;64029;48.244;9.188;2023-02-02T10:37:17;3.50;86.40
75451;DHT22;64029;48.244;9.188;2023-02-02T10:40:03;3.60;86.40
75451;DHT22;64029;48.244;9.188;2023-02-02T10:42:38;3.60;86.40
75451;DHT22;64029;48.244;9.188;2023-02-02T10:45:13;3.60;86.40
75451;DHT22;64029;48.244;9.188;2023-02-02T10:47:41;3.60;86.40
75451;DHT22;64029;48.244;9.188;2023-02-02T10:50:15;3.70;86.40
75451;DHT22;64029;48.244;9.188;2023-02-02T10:52:45;3.70;86.30
75451;DHT22;64029;48.244;9.188;2023-02-02T10:55:20;3.70;86.40
75451;DHT22;64029;48.244;9.188;2023-02-02T10:57:57;3.60;86.10
75451;DHT22;64029;48.244;9.188;2023-02-02T11:00:31;3.70;86.20
75451;DHT22;64029;48.244;9.188;2023-02-02T11:02:59;3.70;86.20
75451;DHT22;64029;48.244;9.188;2023-02-02T11:05:29;3.70;85.70
75451;DHT22;64029;48.244;9.188;2023-02-02T11:08:15;3.70;86.10
75451;DHT22;64029;48.244;9.188;2023-02-02T11:10:46;3.70;86.00
75451;DHT22;64029;48.244;9.188;2023-02-02T11:13:22;3.70;86.00
75451;DHT22;64029;48.244;9.188;2023-02-02T11:15:50;3.80;85.90
75451;DHT22;64029;48.244;9.188;2023-02-02T11:18:37;3.80;85.80
75451;DHT22;64029;48.244;9.188;2023-02-02T11:23:50;3.90;85.90
75451;DHT22;64029;48.244;9.188;2023-02-02T11:26:19;3.90;85.80
75451;DHT22;64029;48.244;9.188;2023-02-02T11:28:47;3.90;86.00
75451;DHT22;64029;48.244;9.188;2023-02-02T11:31:29;4.00;86.10
75451;DHT22;64029;48.244;9.188;2023-02-02T11:34:14;3.90;85.60
75451;DHT22;64029;48.244;9.188;2023-02-02T11:36:59;4.00;85.50
75451;DHT22;64029;48.244;9.188;2023-02-02T11:39:26;4.00;85.70
75451;DHT22;64029;48.244;9.188;2023-02-02T11:42:00;4.10;85.50
75451;DHT22;64029;48.244;9.188;2023-02-02T11:44:28;4.10;85.50
75451;DHT22;64029;48.244;9.188;2023-02-02T11:46:57;4.10;85.40
75451;DHT22;64029;48.244;9.188;2023-02-02T11:49:25;4.10;85.60
75451;DHT22;64029;48.244;9.188;2023-02-02T11:51:57;4.20;85.30
75451;DHT22;64029;48.244;9.188;2023-02-02T11:54:29;4.20;85.50
75451;DHT22;64029;48.244;9.188;2023-02-02T11:57:00;4.20;85.60
75451;DHT22;64029;48.244;9.188;2023-02-02T11:59:33;4.20;85.30
75451;DHT22;64029;48.244;9.188;2023-02-02T12:02:28;4.20;85.60
75451;DHT22;64029;48.244;9.188;2023-02-02T12:05:12;4.20;84.80
75451;DHT22;64029;48.244;9.188;2023-02-02T12:07:41;4.30;85.00
75451;DHT22;64029;48.244;9.188;2023-02-02T12:10:15;4.20;83.90
75451;DHT22;64029;48.244;9.188;2023-02-02T12:12:53;4.20;84.50
75451;DHT22;64029;48.244;9.188;2023-02-02T12:15:30;4.30;85.00
75451;DHT22;64029;48.244;9.188;2023-02-02T12:18:11;4.30;85.10
75451;DHT22;64029;48.244;9.188;2023-02-02T12:20:50;4.30;84.70
75451;DHT22;64029;48.244;9.188;2023-02-02T12:23:37;4.30;84.70
75451;DHT22;64029;48.244;9.188;2023-02-02T12:26:22;4.40;85.00
75451;DHT22;64029;48.244;9.188;2023-02-02T12:29:09;4.40;84.90
75451;DHT22;64029;48.244;9.188;2023-02-02T12:31:52;4.40;84.70
75451;DHT22;64029;48.244;9.188;2023-02-02T12:34:29;4.40;85.20
75451;DHT22;64029;48.244;9.188;2023-02-02T12:37:04;4.40;84.40
75451;DHT22;64029;48.244;9.188;2023-02-02T12:39:45;4.40;84.50
75451;DHT22;64029;48.244;9.188;2023-02-02T12:42:32;4.40;84.90
75451;DHT22;64029;48.244;9.188;2023-02-02T12:48:04;4.40;85.10
75451;DHT22;64029;48.244;9.188;2023-02-02T12:50:43;4.50;85.80
75451;DHT22;64029;48.244;9.188;2023-02-02T12:53:27;4.50;86.10
75451;DHT22;64029;48.244;9.188;2023-02-02T12:56:01;4.50;85.30
75451;DHT22;64029;48.244;9.188;2023-02-02T12:58:35;4.50;85.30
75451;DHT22;64029;48.244;9.188;2023-02-02T13:01:21;4.50;85.50
75451;DHT22;64029;48.244;9.188;2023-02-02T13:04:02;4.50;85.10
75451;DHT22;64029;48.244;9.188;2023-02-02T13:06:52;4.50;85.40
75451;DHT22;64029;48.244;9.188;2023-02-02T13:09:27;4.50;85.50
75451;DHT22;64029;48.244;9.188;2023-02-02T13:12:01;4.50;85.30
75451;DHT22;64029;48.244;9.188;2023-02-02T13:14:33;4.50;85.20
75451;DHT22;64029;48.244;9.188;2023-02-02T13:17:08;4.50;85.20
75451;DHT22;64029;48.244;9.188;2023-02-02T13:19:38;4.50;85.50
75451;DHT22;64029;48.244;9.188;2023-02-02T13:22:12;4.50;85.70
75451;DHT22;64029;48.244;9.188;2023-02-02T13:24:45;4.50;85.50
75451;DHT22;64029;48.244;9.188;2023-02-02T13:27:16;4.50;85.40
75451;DHT22;64029;48.244;9.188;2023-02-02T13:29:48;4.50;85.20
75451;DHT22;64029;48.244;9.188;2023-02-02T13:32:23;4.50;85.50
75451;DHT22;64029;48.244;9.188;2023-02-02T13:34:55;4.50;85.10
75451;DHT22;64029;48.244;9.188;2023-02-02T13:37:29;4.50;84.90
75451;DHT22;64029;48.244;9.188;2023-02-02T13:40:05;4.50;85.00
75451;DHT22;64029;48.244;9.188;2023-02-02T13:42:45;4.50;85.20
75451;DHT22;64029;48.244;9.188;2023-02-02T13:45:26;4.50;85.10
75451;DHT22;64029;48.244;9.188;2023-02-02T13:48:05;4.50;84.80
75451;DHT22;64029;48.244;9.188;2023-02-02T13:50:42;4.60;85.10
75451;DHT22;64029;48.244;9.188;2023-02-02T13:53:30;4.60;84.90
75451;DHT22;64029;48.244;9.188;2023-02-02T13:56:23;4.50;84.70
75451;DHT22;64029;48.244;9.188;2023-02-02T13:59:28;4.50;84.80
75451;DHT22;64029;48.244;9.188;2023-02-02T14:02:01;4.60;85.00
75451;DHT22;64029;48.244;9.188;2023-02-02T14:04:30;4.60;85.20
75451;DHT22;64029;48.244;9.188;2023-02-02T14:06:59;4.60;85.30
75451;DHT22;64029;48.244;9.188;2023-02-02T14:09:31;4.50;85.00
75451;DHT22;64029;48.244;9.188;2023-02-02T14:12:02;4.50;84.70
75451;DHT22;64029;48.244;9.188;2023-02-02T14:14:31;4.60;85.20
75451;DHT22;64029;48.244;9.188;2023-02-02T14:17:02;4.50;85.00
75451;DHT22;64029;48.244;9.188;2023-02-02T14:19:51;4.50;84.70
75451;DHT22;64029;48.244;9.188;2023-02-02T14:22:37;4.50;84.90
75451;DHT22;64029;48.244;9.188;2023-02-02T14:28:09;4.50;84.90
75451;DHT22;64029;48.244;9.188;2023-02-02T14:30:37;4.50;85.00
75451;DHT22;64029;48.244;9.188;2023-02-02T14:33:36;4.50;84.90
75451;DHT22;64029;48.244;9.188;2023-02-02T14:36:14;4.50;84.80
75451;DHT22;64029;48.244;9.188;2023-02-02T14:39:07;4.50;84.70
75451;DHT22;64029;48.244;9.188;2023-02-02T14:41:50;4.50;84.90
75451;DHT22;64029;48.244;9.188;2023-02-02T14:45:04;4.50;84.90
75451;DHT22;64029;48.244;9.188;2023-02-02T14:47:49;4.50;85.00
75451;DHT22;64029;48.244;9.188;2023-02-02T14:50:30;4.40;85.10
75451;DHT22;64029;48.244;9.188;2023-02-02T14:53:06;4.40;84.70
75451;DHT22;64029;48.244;9.188;2023-02-02T14:55:51;4.30;84.40
75451;DHT22;64029;48.244;9.188;2023-02-02T14:58:23;4.30;84.80
75451;DHT22;64029;48.244;9.188;2023-02-02T15:01:00;4.30;84.70
75451;DHT22;64029;48.244;9.188;2023-02-02T15:03:46;4.30;84.90
75451;DHT22;64029;48.244;9.188;2023-02-02T15:06:25;4.30;84.70
75451;DHT22;64029;48.244;9.188;2023-02-02T15:09:31;4.30;84.80
75451;DHT22;64029;48.244;9.188;2023-02-02T15:12:18;4.30;84.80
75451;DHT22;64029;48.244;9.188;2023-02-02T15:14:48;4.30;84.60
75451;DHT22;64029;48.244;9.188;2023-02-02T15:17:24;4.30;84.80
75451;DHT22;64029;48.244;9.188;2023-02-02T15:19:54;4.30;84.80
75451;DHT22;64029;48.244;9.188;2023-02-02T15:22:30;4.30;84.90
75451;DHT22;64029;48.244;9.188;2023-02-02T15:25:03;4.30;84.90
75451;DHT22;64029;48.244;9.188;2023-02-02T15:27:33;4.30;84.70
75451;DHT22;64029;48.244;9.188;2023-02-02T15:30:03;4.20;84.80
75451;DHT22;64029;48.244;9.188;2023-02-02T15:32:32;4.20;84.90
75451;DHT22;64029;48.244;9.188;2023-02-02T15:35:02;4.20;84.80
75451;DHT22;64029;48.244;9.188;2023-02-02T15:37:33;4.20;84.80
75451;DHT22;64029;48.244;9.188;2023-02-02T15:40:11;4.20;84.80
75451;DHT22;64029;48.244;9.188;2023-02-02T15:42:41;4.20;84.80
75451;DHT22;64029;48.244;9.188;2023-02-02T15:45:32;4.20;84.80
75451;DHT22;64029;48.244;9.188;2023-02-02T15:48:00;4.10;84.80
75451;DHT22;64029;48.244;9.188;2023-02-02T15:50:31;4.10;84.80
75451;DHT22;64029;48.244;9.188;2023-02-02T15:52:58;4.10;85.00
75451;DHT22;64029;48.244;9.188;2023-02-02T15:55:31;4.10;85.00
75451;DHT22;64029;48.244;9.188;2023-02-02T15:57:59;4.10;84.90
75451;DHT22;64029;48.244;9.188;2023-02-02T16:00:29;4.10;85.00
75451;DHT22;64029;48.244;9.188;2023-02-02T16:03:00;4.10;85.00
75451;DHT22;64029;48.244;9.188;2023-02-02T16:05:42;4.10;85.10
75451;DHT22;64029;48.244;9.188;2023-02-02T16:08:14;4.00;85.10
75451;DHT22;64029;48.244;9.188;2023-02-02T16:10:43;4.00;85.10
75451;DHT22;64029;48.244;9.188;2023-02-02T16:13:21;4.00;85.10
75451;DHT22;64029;48.244;9.188;2023-02-02T16:15:54;4.00;85.20
75451;DHT22;64029;48.244;9.188;2023-02-02T16:18:22;4.00;85.20
75451;DHT22;64029;48.244;9.188;2023-02-02T16:20:48;4.00;85.20
75451;DHT22;64029;48.244;9.188;2023-02-02T16:23:22;4.00;85.20
75451;DHT22;64029;48.244;9.188;2023-02-02T16:25:54;4.00;85.30